Time;durP1;ratioP1;P1;durP2;ratioP2;P2;SDS_P1;SDS_P2;PMS_P1;PMS_P2;Temp;Humidity;BMP_temperature;BMP_pressure;BME280_temperature;BME280_humidity;BME280_pressure;Samples;Min_cycle;Max_cycle;Signal;HPM_P1;HPM_P2
2023/05/04 00:00:46;;;;;;;2.40;1.60;;;;;;;;;;5046155;28;20204;-89
2023/05/04 00:03:14;;;;;;;3.53;1.87;;;;;;;;;;5041396;28;20207;-89
2023/05/04 00:05:42;;;;;;;2.77;1.87;;;;;;;;;;5049938;28;20306;-89
2023/05/04 00:08:09;;;;;;;2.23;1.70;;;;;;;;;;5048210;28;20230;-89
2023/05/04 00:10:36;;;;;;;2.40;1.93;;;;;;;;;;5046710;28;20208;-89
2023/05/04 00:13:03;;;;;;;4.70;1.93;;;;;;;;;;5048134;28;20214;-89
2023/05/04 00:15:31;;;;;;;2.30;1.80;;;;;;;;;;5047000;28;20215;-89
2023/05/04 00:17:58;;;;;;;2.73;1.97;;;;;;;;;;5046961;28;20298;-88
2023/05/04 00:20:26;;;;;;;3.77;2.03;;;;;;;;;;5049665;28;20210;-89
2023/05/04 00:22:53;;;;;;;2.03;1.83;;;;;;;;;;5047062;28;20227;-90
2023/05/04 00:25:21;;;;;;;2.40;1.60;;;;;;;;;;5051874;28;20282;-89
2023/05/04 00:27:48;;;;;;;2.00;1.80;;;;;;;;;;5048453;28;20234;-89
2023/05/04 00:30:15;;;;;;;1.80;1.70;;;;;;;;;;5042303;28;20223;-89
2023/05/04 00:32:42;;;;;;;2.00;1.70;;;;;;;;;;5042788;28;20216;-89
2023/05/04 00:35:10;;;;;;;2.30;2.00;;;;;;;;;;5037462;28;20219;-89
2023/05/04 00:37:38;;;;;;;2.43;1.70;;;;;;;;;;5048604;28;20290;-89
2023/05/04 00:40:06;;;;;;;2.57;2.00;;;;;;;;;;5043300;28;20211;-89
2023/05/04 00:42:33;;;;;;;3.00;2.00;;;;;;;;;;5050499;28;20302;-89
2023/05/04 00:45:00;;;;;;;2.23;2.00;;;;;;;;;;5047607;28;20244;-89
2023/05/04 00:47:28;;;;;;;2.60;1.80;;;;;;;;;;5041682;28;20215;-89
2023/05/04 00:49:56;;;;;;;2.07;1.80;;;;;;;;;;5049198;28;20208;-89
2023/05/04 00:52:23;;;;;;;2.10;1.90;;;;;;;;;;5044805;28;20211;-89
2023/05/04 00:54:52;;;;;;;1.90;1.80;;;;;;;;;;5045388;28;20308;-89
2023/05/04 00:57:20;;;;;;;2.43;1.80;;;;;;;;;;5043879;28;20203;-89
2023/05/04 00:59:47;;;;;;;2.03;1.80;;;;;;;;;;5048111;28;20210;-89
2023/05/04 01:02:14;;;;;;;1.80;1.63;;;;;;;;;;5051113;28;20200;-91
2023/05/04 01:04:41;;;;;;;3.27;1.83;;;;;;;;;;5051536;28;20211;-92
2023/05/04 01:07:12;;;;;;;2.63;2.10;;;;;;;;;;5046842;28;20203;-91
2023/05/04 01:09:43;;;;;;;2.53;1.97;;;;;;;;;;5047508;28;20226;-91
2023/05/04 01:12:15;;;;;;;2.77;1.90;;;;;;;;;;5048198;28;20195;-92
2023/05/04 01:14:44;;;;;;;2.30;1.97;;;;;;;;;;5048890;28;20253;-92
2023/05/04 01:17:12;;;;;;;5.10;2.30;;;;;;;;;;5056168;28;20207;-92
2023/05/04 01:19:39;;;;;;;2.93;1.90;;;;;;;;;;5044985;28;20195;-92
2023/05/04 01:22:08;;;;;;;3.37;1.90;;;;;;;;;;5049605;28;20279;-92
2023/05/04 01:24:35;;;;;;;2.97;2.10;;;;;;;;;;5052027;28;20294;-92
2023/05/04 01:27:04;;;;;;;2.33;2.00;;;;;;;;;;5052023;28;20229;-92
2023/05/04 01:29:35;;;;;;;3.63;2.10;;;;;;;;;;5046793;28;20230;-92
2023/05/04 01:32:03;;;;;;;2.33;2.03;;;;;;;;;;5043470;28;20207;-91
2023/05/04 01:34:30;;;;;;;2.27;1.97;;;;;;;;;;5050762;28;20208;-92
2023/05/04 01:36:57;;;;;;;1.80;1.70;;;;;;;;;;5048370;28;20306;-92
2023/05/04 01:39:26;;;;;;;2.20;2.00;;;;;;;;;;5049243;28;20207;-92
2023/05/04 01:41:53;;;;;;;2.33;2.10;;;;;;;;;;5048204;28;20262;-92
2023/05/04 01:44:20;;;;;;;2.90;2.13;;;;;;;;;;5054412;28;20200;-92
2023/05/04 01:46:47;;;;;;;3.90;1.80;;;;;;;;;;5048791;28;20215;-92
2023/05/04 01:49:15;;;;;;;1.90;1.80;;;;;;;;;;5053682;28;20207;-91
2023/05/04 01:51:42;;;;;;;2.20;1.93;;;;;;;;;;5051643;28;20208;-92
2023/05/04 01:54:09;;;;;;;3.57;2.13;;;;;;;;;;5050987;28;20221;-92
2023/05/04 01:56:37;;;;;;;2.87;1.93;;;;;;;;;;5050811;28;20223;-92
2023/05/04 01:59:05;;;;;;;2.10;1.80;;;;;;;;;;5052548;28;20200;-91
2023/05/04 02:01:32;;;;;;;2.20;2.00;;;;;;;;;;5050770;28;20199;-92
2023/05/04 02:03:59;;;;;;;2.47;1.87;;;;;;;;;;5054765;28;20215;-92
2023/05/04 02:06:26;;;;;;;2.20;2.00;;;;;;;;;;5054945;28;20206;-92
2023/05/04 02:08:53;;;;;;;1.93;1.77;;;;;;;;;;5053140;28;20203;-91
2023/05/04 02:11:21;;;;;;;3.17;1.90;;;;;;;;;;5049956;28;20242;-92
2023/05/04 02:13:49;;;;;;;2.70;1.73;;;;;;;;;;5051922;28;20203;-93
2023/05/04 02:16:16;;;;;;;1.83;1.73;;;;;;;;;;5040750;28;20252;-92
2023/05/04 02:18:43;;;;;;;2.53;1.90;;;;;;;;;;5054398;28;20295;-92
2023/05/04 02:21:11;;;;;;;3.23;2.33;;;;;;;;;;5040339;28;20297;-92
2023/05/04 02:23:38;;;;;;;2.33;1.90;;;;;;;;;;5048907;28;20251;-91
2023/05/04 02:26:05;;;;;;;3.30;2.10;;;;;;;;;;5045650;28;20204;-92
2023/05/04 02:28:32;;;;;;;2.07;1.87;;;;;;;;;;5050929;28;20203;-92
2023/05/04 02:31:01;;;;;;;2.90;1.90;;;;;;;;;;5050163;28;20208;-92
2023/05/04 02:33:28;;;;;;;2.50;1.83;;;;;;;;;;5054572;28;20214;-92
2023/05/04 02:35:55;;;;;;;4.97;2.00;;;;;;;;;;5047222;28;20264;-91
2023/05/04 02:38:22;;;;;;;2.17;1.97;;;;;;;;;;5055804;28;20230;-92
2023/05/04 02:40:50;;;;;;;2.40;1.83;;;;;;;;;;5056139;28;20267;-92
2023/05/04 02:43:17;;;;;;;1.77;1.60;;;;;;;;;;5055786;28;20231;-93
2023/05/04 02:45:44;;;;;;;1.90;1.80;;;;;;;;;;5056333;28;20226;-93
2023/05/04 02:48:12;;;;;;;2.00;1.83;;;;;;;;;;5061568;28;20203;-92
2023/05/04 02:50:40;;;;;;;2.10;2.00;;;;;;;;;;5061560;28;20246;-93
2023/05/04 02:53:07;;;;;;;2.10;1.80;;;;;;;;;;5059083;28;20231;-92
2023/05/04 02:55:34;;;;;;;2.27;1.90;;;;;;;;;;5056383;28;20274;-92
2023/05/04 02:58:01;;;;;;;2.47;1.90;;;;;;;;;;5057060;28;20204;-92
2023/05/04 03:00:28;;;;;;;2.03;1.93;;;;;;;;;;5057182;28;20235;-92
2023/05/04 03:02:56;;;;;;;2.07;1.80;;;;;;;;;;5064280;28;20285;-94
2023/05/04 03:05:24;;;;;;;2.23;1.73;;;;;;;;;;5059275;28;20234;-92
2023/05/04 03:07:51;;;;;;;2.37;2.00;;;;;;;;;;5058493;28;20216;-93
2023/05/04 03:10:19;;;;;;;1.90;1.80;;;;;;;;;;5057355;28;20317;-92
2023/05/04 03:12:46;;;;;;;2.13;1.93;;;;;;;;;;5059319;28;20215;-92
2023/05/04 03:15:15;;;;;;;2.07;1.70;;;;;;;;;;5053985;28;20217;-92
2023/05/04 03:17:43;;;;;;;2.13;1.80;;;;;;;;;;5046419;28;20227;-92
2023/05/04 03:20:10;;;;;;;2.20;2.00;;;;;;;;;;5049224;28;20279;-92
2023/05/04 03:22:39;;;;;;;2.70;2.00;;;;;;;;;;5042519;28;20294;-91
2023/05/04 03:25:06;;;;;;;1.93;1.80;;;;;;;;;;5048039;28;20287;-92
2023/05/04 03:27:34;;;;;;;2.13;1.90;;;;;;;;;;5047897;28;20207;-92
2023/05/04 03:30:01;;;;;;;2.73;2.00;;;;;;;;;;5045807;28;20239;-92
2023/05/04 03:32:28;;;;;;;3.03;2.07;;;;;;;;;;5043183;28;20291;-92
2023/05/04 03:34:55;;;;;;;2.37;2.17;;;;;;;;;;5050388;28;20282;-92
2023/05/04 03:37:23;;;;;;;2.30;2.10;;;;;;;;;;5047158;28;20277;-91
2023/05/04 03:39:51;;;;;;;2.03;1.93;;;;;;;;;;5046692;28;20207;-92
2023/05/04 03:42:19;;;;;;;1.97;1.87;;;;;;;;;;5044596;28;20200;-92
2023/05/04 03:44:46;;;;;;;2.30;2.10;;;;;;;;;;5047908;28;20214;-91
2023/05/04 03:47:13;;;;;;;2.20;2.00;;;;;;;;;;5045898;28;20211;-92
2023/05/04 03:49:40;;;;;;;2.87;1.70;;;;;;;;;;5047840;28;20218;-92
2023/05/04 03:52:07;;;;;;;2.03;1.90;;;;;;;;;;5048734;28;20291;-92
2023/05/04 03:54:35;;;;;;;2.70;1.77;;;;;;;;;;5046893;28;20276;-91
2023/05/04 03:57:03;;;;;;;4.33;2.10;;;;;;;;;;5037799;28;20244;-92
2023/05/04 03:59:30;;;;;;;2.83;2.03;;;;;;;;;;5049794;28;20207;-92
2023/05/04 04:01:57;;;;;;;2.10;1.90;;;;;;;;;;5049993;28;20234;-92
2023/05/04 04:04:25;;;;;;;3.83;1.90;;;;;;;;;;5048388;28;20295;-91
2023/05/04 04:06:52;;;;;;;2.83;2.03;;;;;;;;;;5047242;28;20200;-92
2023/05/04 04:09:19;;;;;;;2.60;2.00;;;;;;;;;;5045433;28;20298;-92
2023/05/04 04:11:46;;;;;;;2.90;2.27;;;;;;;;;;5048662;28;20216;-92
2023/05/04 04:14:15;;;;;;;2.50;2.30;;;;;;;;;;5044018;28;20211;-92
2023/05/04 04:16:42;;;;;;;2.40;2.10;;;;;;;;;;5047725;28;20314;-91
2023/05/04 04:19:09;;;;;;;2.30;2.03;;;;;;;;;;5044952;28;20206;-92
2023/05/04 04:21:36;;;;;;;3.97;2.30;;;;;;;;;;5045808;28;20282;-92
2023/05/04 04:24:04;;;;;;;2.43;2.07;;;;;;;;;;5053014;28;20232;-92
2023/05/04 04:26:31;;;;;;;3.20;2.20;;;;;;;;;;5051918;28;20271;-92
2023/05/04 04:28:58;;;;;;;2.50;2.07;;;;;;;;;;5053192;28;20234;-92
2023/05/04 04:31:27;;;;;;;3.30;2.10;;;;;;;;;;5048102;28;20192;-91
2023/05/04 04:33:54;;;;;;;2.37;2.17;;;;;;;;;;5046578;28;20221;-92
2023/05/04 04:36:22;;;;;;;2.30;2.10;;;;;;;;;;5045363;28;20223;-92
2023/05/04 04:38:49;;;;;;;1.80;1.70;;;;;;;;;;5049995;28;20215;-92
2023/05/04 04:41:16;;;;;;;2.83;2.00;;;;;;;;;;5044709;28;20218;-92
2023/05/04 04:43:43;;;;;;;2.37;2.10;;;;;;;;;;5048410;28;20200;-92
2023/05/04 04:46:11;;;;;;;1.90;1.80;;;;;;;;;;5052515;28;20228;-93
2023/05/04 04:48:39;;;;;;;2.73;2.10;;;;;;;;;;5042213;28;20230;-92
2023/05/04 04:51:10;;;;;;;2.10;2.00;;;;;;;;;;5046708;28;20207;-92
2023/05/04 04:53:37;;;;;;;2.00;1.90;;;;;;;;;;5046254;28;20310;-93
2023/05/04 04:56:06;;;;;;;1.93;1.83;;;;;;;;;;5049436;28;20298;-92
2023/05/04 04:58:33;;;;;;;2.27;2.07;;;;;;;;;;5044378;28;20231;-93
2023/05/04 05:01:01;;;;;;;2.80;1.87;;;;;;;;;;5048342;28;20199;-94
2023/05/04 05:03:34;;;;;;;2.80;2.00;;;;;;;;;;5048441;28;20234;-93
2023/05/04 05:06:12;;;;;;;3.57;1.90;;;;;;;;;;5045747;28;20277;-93
2023/05/04 05:08:40;;;;;;;2.27;1.90;;;;;;;;;;5049895;28;20253;-94
2023/05/04 05:11:09;;;;;;;2.90;2.10;;;;;;;;;;5059908;28;20302;-93
2023/05/04 05:13:39;;;;;;;2.50;2.30;;;;;;;;;;5058292;28;20199;-94
2023/05/04 05:16:11;;;;;;;2.20;1.90;;;;;;;;;;5057601;28;20266;-94
2023/05/04 05:18:39;;;;;;;1.93;1.70;;;;;;;;;;5060785;28;20257;-95
2023/05/04 05:21:10;;;;;;;1.87;1.77;;;;;;;;;;5058696;28;20199;-94
2023/05/04 05:23:40;;;;;;;2.47;2.20;;;;;;;;;;5052640;28;20256;-92
2023/05/04 05:26:10;;;;;;;2.20;2.03;;;;;;;;;;5043340;28;20315;-94
2023/05/04 05:28:38;;;;;;;1.97;1.87;;;;;;;;;;5047954;28;20207;-93
2023/05/04 05:31:06;;;;;;;3.40;2.30;;;;;;;;;;5047241;28;20258;-92
2023/05/04 05:33:35;;;;;;;3.13;2.10;;;;;;;;;;5037929;28;20204;-93
2023/05/04 05:36:04;;;;;;;3.67;2.20;;;;;;;;;;5044475;28;20207;-93
2023/05/04 05:38:34;;;;;;;2.10;1.90;;;;;;;;;;5044137;28;20323;-93
2023/05/04 05:41:03;;;;;;;2.13;1.93;;;;;;;;;;5045207;28;20204;-92
2023/05/04 05:43:32;;;;;;;2.67;1.97;;;;;;;;;;5042419;28;20211;-93
2023/05/04 05:46:02;;;;;;;2.40;2.20;;;;;;;;;;5051857;28;20238;-93
2023/05/04 05:48:31;;;;;;;2.33;2.00;;;;;;;;;;5052290;28;20286;-93
2023/05/04 05:51:02;;;;;;;3.30;2.10;;;;;;;;;;5045440;28;20215;-93
2023/05/04 05:53:38;;;;;;;3.83;1.80;;;;;;;;;;5047399;28;20200;-93
2023/05/04 05:56:10;;;;;;;4.17;1.97;;;;;;;;;;5043549;28;20207;-93
2023/05/04 05:58:42;;;;;;;4.03;2.37;;;;;;;;;;5049107;28;20254;-93
2023/05/04 06:01:27;;;;;;;3.47;2.00;;;;;;;;;;5049105;28;20208;-93
2023/05/04 06:04:06;;;;;;;3.30;2.00;;;;;;;;;;5048494;28;20223;-94
2023/05/04 06:10:09;;;;;;;3.20;2.07;;;;;;;;;;5071091;27;20578;-69
2023/05/04 06:12:36;;;;;;;4.90;2.30;;;;;;;;;;5073724;28;20239;-69
2023/05/04 06:15:03;;;;;;;3.50;2.30;;;;;;;;;;5076938;28;20202;-69
2023/05/04 06:17:38;;;;;;;2.90;1.90;;;;;;;;;;5071213;28;20216;-69
2023/05/04 06:20:06;;;;;;;3.00;2.10;;;;;;;;;;5071567;28;20214;-69
2023/05/04 06:22:36;;;;;;;3.63;2.20;;;;;;;;;;5072723;28;20198;-69
2023/05/04 06:25:04;;;;;;;2.63;2.00;;;;;;;;;;5073640;28;20294;-69
2023/05/04 06:27:36;;;;;;;2.20;2.00;;;;;;;;;;5074546;28;20206;-69
2023/05/04 06:30:06;;;;;;;2.00;1.80;;;;;;;;;;5057941;27;20226;-69
2023/05/04 06:32:34;;;;;;;3.23;2.23;;;;;;;;;;5060661;28;20207;-69
2023/05/04 06:35:04;;;;;;;2.33;2.00;;;;;;;;;;5056761;28;20211;-68
2023/05/04 06:37:32;;;;;;;2.57;1.93;;;;;;;;;;5055167;28;20227;-68
2023/05/04 06:40:00;;;;;;;2.37;2.10;;;;;;;;;;5065443;28;20202;-67
2023/05/04 06:42:30;;;;;;;2.08;1.83;;;;;;;;;;5062460;28;20234;-68
2023/05/04 06:44:59;;;;;;;2.47;1.80;;;;;;;;;;5066392;28;20214;-67
2023/05/04 06:47:26;;;;;;;3.17;2.33;;;;;;;;;;5062067;28;20226;-68
2023/05/04 06:49:57;;;;;;;3.28;2.20;;;;;;;;;;5059057;28;20235;-67
2023/05/04 06:52:28;;;;;;;4.70;2.20;;;;;;;;;;5061283;28;20200;-68
2023/05/04 06:54:58;;;;;;;1.92;1.75;;;;;;;;;;5059811;28;20213;-68
2023/05/04 06:57:25;;;;;;;2.20;2.00;;;;;;;;;;5065887;28;20265;-68
2023/05/04 06:59:54;;;;;;;3.97;1.92;;;;;;;;;;5067178;28;20210;-68
2023/05/04 07:02:23;;;;;;;2.35;2.15;;;;;;;;;;5066617;28;20211;-68
2023/05/04 07:04:52;;;;;;;4.18;2.08;;;;;;;;;;5061996;28;20206;-67
2023/05/04 07:07:21;;;;;;;3.17;2.00;;;;;;;;;;5067438;28;20226;-67
2023/05/04 07:09:49;;;;;;;2.35;2.03;;;;;;;;;;5061646;28;20237;-67
2023/05/04 07:12:18;;;;;;;2.08;1.90;;;;;;;;;;5063137;28;20202;-67
2023/05/04 07:14:47;;;;;;;3.55;1.98;;;;;;;;;;5061921;28;20203;-68
2023/05/04 07:17:14;;;;;;;2.42;1.90;;;;;;;;;;5064217;28;20209;-67
2023/05/04 07:20:04;;;;;;;3.10;2.00;;;;;;;;;;5061260;28;20230;-68
2023/05/04 07:22:32;;;;;;;2.53;2.20;;;;;;;;;;5052334;28;20216;-67
2023/05/04 07:25:02;;;;;;;3.53;2.25;;;;;;;;;;5051046;28;20207;-68
2023/05/04 07:27:30;;;;;;;2.40;2.20;;;;;;;;;;5042888;28;20237;-68
2023/05/04 07:29:58;;;;;;;2.55;2.08;;;;;;;;;;5050078;28;20227;-68
2023/05/04 07:32:26;;;;;;;2.33;2.00;;;;;;;;;;5050793;28;20205;-67
2023/05/04 07:34:57;;;;;;;2.95;2.20;;;;;;;;;;5047509;28;20218;-68
2023/05/04 07:37:24;;;;;;;2.63;1.90;;;;;;;;;;5052265;28;20211;-67
2023/05/04 07:39:52;;;;;;;2.90;1.90;;;;;;;;;;5052280;28;20208;-67
2023/05/04 07:42:19;;;;;;;3.10;1.90;;;;;;;;;;5041371;28;20238;-67
2023/05/04 07:44:47;;;;;;;2.25;2.08;;;;;;;;;;5052878;28;20203;-67
2023/05/04 07:47:19;;;;;;;2.65;1.90;;;;;;;;;;5047913;28;20203;-67
2023/05/04 07:49:47;;;;;;;2.63;2.05;;;;;;;;;;5050518;28;20291;-67
2023/05/04 07:52:16;;;;;;;4.78;2.10;;;;;;;;;;5052193;28;20207;-67
2023/05/04 07:54:44;;;;;;;3.08;2.15;;;;;;;;;;5049068;28;20203;-68
2023/05/04 07:57:12;;;;;;;2.40;2.20;;;;;;;;;;5043808;28;20207;-67
2023/05/04 07:59:40;;;;;;;2.88;2.10;;;;;;;;;;5046317;28;20214;-67
2023/05/04 08:02:07;;;;;;;4.85;2.47;;;;;;;;;;5043185;28;20199;-67
2023/05/04 08:04:35;;;;;;;3.22;2.22;;;;;;;;;;5043002;28;20210;-67
2023/05/04 08:07:04;;;;;;;2.95;2.10;;;;;;;;;;5052194;28;20214;-67
2023/05/04 08:09:33;;;;;;;4.70;2.08;;;;;;;;;;5037472;28;20300;-67
2023/05/04 08:12:04;;;;;;;2.78;2.10;;;;;;;;;;5041869;28;20204;-67
2023/05/04 08:14:32;;;;;;;2.47;2.22;;;;;;;;;;5050158;28;20203;-67
2023/05/04 08:17:01;;;;;;;2.53;2.30;;;;;;;;;;5047613;28;20261;-66
2023/05/04 08:19:32;;;;;;;3.30;2.20;;;;;;;;;;5044083;28;20203;-66
2023/05/04 08:22:03;;;;;;;3.30;2.45;;;;;;;;;;5045690;28;20234;-67
2023/05/04 08:24:31;;;;;;;2.47;2.28;;;;;;;;;;5048345;28;20202;-67
2023/05/04 08:27:03;;;;;;;4.05;2.25;;;;;;;;;;5027695;28;20204;-67
2023/05/04 08:29:31;;;;;;;3.45;2.60;;;;;;;;;;5049348;28;20243;-68
2023/05/04 08:31:59;;;;;;;3.00;2.75;;;;;;;;;;5046855;28;20206;-67
2023/05/04 08:34:28;;;;;;;4.15;2.55;;;;;;;;;;5051359;28;20203;-67
2023/05/04 08:36:57;;;;;;;2.55;2.33;;;;;;;;;;5050958;28;20210;-67
2023/05/04 08:39:25;;;;;;;4.38;2.50;;;;;;;;;;5041799;28;20235;-68
2023/05/04 08:41:54;;;;;;;3.55;2.47;;;;;;;;;;5046739;28;20215;-68
2023/05/04 08:44:24;;;;;;;3.53;2.50;;;;;;;;;;5044738;28;20196;-68
2023/05/04 08:46:55;;;;;;;2.85;2.17;;;;;;;;;;5049658;28;20200;-68
2023/05/04 08:49:23;;;;;;;2.50;2.30;;;;;;;;;;5049063;28;20227;-67
2023/05/04 08:51:52;;;;;;;2.47;2.17;;;;;;;;;;5047974;28;20312;-67
2023/05/04 08:54:21;;;;;;;3.15;2.45;;;;;;;;;;5044782;28;20196;-67
2023/05/04 08:56:53;;;;;;;2.60;2.40;;;;;;;;;;5047221;28;20210;-69
2023/05/04 08:59:33;;;;;;;3.40;2.65;;;;;;;;;;5047452;28;20218;-70
2023/05/04 09:02:02;;;;;;;2.78;2.38;;;;;;;;;;5045217;28;20239;-69
2023/05/04 09:04:31;;;;;;;2.75;2.53;;;;;;;;;;5050416;28;20200;-69
2023/05/04 09:07:08;;;;;;;3.13;2.40;;;;;;;;;;5042080;28;20300;-69
2023/05/04 09:09:36;;;;;;;3.45;3.15;;;;;;;;;;5044165;28;20230;-67
2023/05/04 09:12:04;;;;;;;4.43;2.22;;;;;;;;;;5045093;28;20210;-67
2023/05/04 09:14:45;;;;;;;2.30;2.10;;;;;;;;;;5046013;28;20215;-68
2023/05/04 09:17:24;;;;;;;3.50;2.45;;;;;;;;;;5039453;28;20256;-68
2023/05/04 09:20:03;;;;;;;4.88;2.00;;;;;;;;;;5048654;28;20254;-68
2023/05/04 09:22:32;;;;;;;2.13;1.90;;;;;;;;;;5047233;28;20204;-69
2023/05/04 09:25:12;;;;;;;2.80;2.30;;;;;;;;;;5051654;28;20222;-67
2023/05/04 09:27:41;;;;;;;3.95;2.30;;;;;;;;;;5049695;28;20302;-67
2023/05/04 09:30:13;;;;;;;2.80;2.10;;;;;;;;;;5044464;28;20253;-69
2023/05/04 09:32:46;;;;;;;2.90;1.98;;;;;;;;;;5041570;28;20207;-68
2023/05/04 09:35:13;;;;;;;2.83;2.22;;;;;;;;;;5043742;28;20253;-67
2023/05/04 09:37:45;;;;;;;3.00;2.00;;;;;;;;;;5046094;28;20199;-67
2023/05/04 09:40:15;;;;;;;3.55;2.20;;;;;;;;;;5047875;28;20247;-67
2023/05/04 09:42:44;;;;;;;2.13;1.70;;;;;;;;;;5048688;28;20222;-67
2023/05/04 09:45:21;;;;;;;3.55;1.98;;;;;;;;;;5048215;28;20270;-67
2023/05/04 09:47:52;;;;;;;2.03;1.80;;;;;;;;;;5047286;28;20211;-67
2023/05/04 09:50:21;;;;;;;2.33;1.92;;;;;;;;;;5048431;28;20223;-69
2023/05/04 09:52:48;;;;;;;2.72;2.05;;;;;;;;;;5046774;28;20215;-67
2023/05/04 09:55:17;;;;;;;2.42;2.05;;;;;;;;;;5048789;28;20275;-68
2023/05/04 09:57:45;;;;;;;2.60;2.38;;;;;;;;;;5049415;28;20218;-68
2023/05/04 10:00:15;;;;;;;4.60;2.47;;;;;;;;;;5045102;28;20261;-69
2023/05/04 10:02:44;;;;;;;2.05;1.90;;;;;;;;;;5042940;28;20206;-68
2023/05/04 10:05:14;;;;;;;2.20;2.05;;;;;;;;;;5044311;28;20203;-67
2023/05/04 10:07:48;;;;;;;3.63;1.98;;;;;;;;;;5045054;28;20320;-67
2023/05/04 10:10:17;;;;;;;3.03;2.28;;;;;;;;;;5040011;28;20275;-67
2023/05/04 10:12:47;;;;;;;2.50;1.88;;;;;;;;;;5044004;28;20268;-67
2023/05/04 10:15:15;;;;;;;2.22;2.00;;;;;;;;;;5046470;28;20211;-67
2023/05/04 10:17:55;;;;;;;2.30;1.70;;;;;;;;;;5045330;28;20211;-68
2023/05/04 10:20:42;;;;;;;1.73;1.63;;;;;;;;;;5046578;28;20210;-69
2023/05/04 10:23:19;;;;;;;2.30;1.85;;;;;;;;;;5047336;28;20342;-68
2023/05/04 10:25:52;;;;;;;2.47;1.80;;;;;;;;;;5046491;28;20199;-67
2023/05/04 10:28:29;;;;;;;1.70;1.60;;;;;;;;;;5050519;28;20215;-67
2023/05/04 10:30:57;;;;;;;2.92;1.58;;;;;;;;;;5048044;28;20353;-68
2023/05/04 10:33:38;;;;;;;3.22;1.80;;;;;;;;;;5031643;28;20223;-68
2023/05/04 10:36:05;;;;;;;3.00;1.55;;;;;;;;;;5047696;28;20207;-67
2023/05/04 10:38:33;;;;;;;2.30;1.80;;;;;;;;;;5049523;28;20195;-67
2023/05/04 10:41:04;;;;;;;2.20;2.00;;;;;;;;;;5050377;28;20207;-67
2023/05/04 10:43:32;;;;;;;1.73;1.63;;;;;;;;;;5047356;28;20208;-66
2023/05/04 10:46:03;;;;;;;1.80;1.70;;;;;;;;;;5048114;28;20267;-66
2023/05/04 10:48:38;;;;;;;2.05;1.80;;;;;;;;;;5043627;28;20263;-66
2023/05/04 10:51:06;;;;;;;1.88;1.60;;;;;;;;;;5043996;28;20242;-67
2023/05/04 10:53:34;;;;;;;2.10;1.90;;;;;;;;;;5047665;28;20239;-67
2023/05/04 10:56:09;;;;;;;5.32;3.90;;;;;;;;;;5050505;28;20295;-66
2023/05/04 10:58:38;;;;;;;2.75;1.80;;;;;;;;;;5050171;28;20210;-67
2023/05/04 11:01:17;;;;;;;2.78;1.73;;;;;;;;;;5047683;28;20203;-66
2023/05/04 11:03:47;;;;;;;1.67;1.50;;;;;;;;;;5052683;28;20199;-67
2023/05/04 11:06:20;;;;;;;1.70;1.60;;;;;;;;;;5048547;28;20231;-69
2023/05/04 11:08:49;;;;;;;1.50;1.40;;;;;;;;;;5045477;28;20242;-68
2023/05/04 11:11:16;;;;;;;1.45;1.35;;;;;;;;;;5053020;28;20281;-68
2023/05/04 11:13:47;;;;;;;1.30;1.20;;;;;;;;;;5050258;28;20199;-68
2023/05/04 11:16:24;;;;;;;1.70;1.60;;;;;;;;;;5050571;28;20207;-68
2023/05/04 11:18:54;;;;;;;1.40;1.30;;;;;;;;;;5045878;28;20206;-68
2023/05/04 11:21:26;;;;;;;1.75;1.65;;;;;;;;;;5049405;28;20199;-67
2023/05/04 11:23:57;;;;;;;1.50;1.40;;;;;;;;;;5050975;28;20211;-67
2023/05/04 11:26:28;;;;;;;1.67;1.58;;;;;;;;;;5052577;28;20212;-67
2023/05/04 11:28:55;;;;;;;1.48;1.48;;;;;;;;;;5045477;28;20230;-67
2023/05/04 11:31:25;;;;;;;1.90;1.58;;;;;;;;;;5048061;28;20216;-67
2023/05/04 11:33:58;;;;;;;1.60;1.50;;;;;;;;;;5039065;28;20218;-66
2023/05/04 11:36:27;;;;;;;1.60;1.50;;;;;;;;;;5047295;28;20208;-66
2023/05/04 11:38:59;;;;;;;1.48;1.38;;;;;;;;;;5049503;28;20211;-66
2023/05/04 11:41:28;;;;;;;1.95;1.50;;;;;;;;;;5052088;28;20200;-66
2023/05/04 11:43:56;;;;;;;2.67;1.60;;;;;;;;;;5052269;28;20215;-67
2023/05/04 11:46:24;;;;;;;1.60;1.45;;;;;;;;;;5048634;28;20203;-67
2023/05/04 11:48:55;;;;;;;1.60;1.50;;;;;;;;;;5053599;28;20207;-66
2023/05/04 11:51:24;;;;;;;1.40;1.30;;;;;;;;;;5049729;28;20224;-66
2023/05/04 11:53:51;;;;;;;1.63;1.52;;;;;;;;;;5047314;28;20233;-66
2023/05/04 11:56:22;;;;;;;1.50;1.40;;;;;;;;;;5045269;28;20204;-66
2023/05/04 11:58:50;;;;;;;2.40;1.60;;;;;;;;;;5051512;28;20304;-66
2023/05/04 12:01:17;;;;;;;1.60;1.50;;;;;;;;;;5044712;28;20210;-67
2023/05/04 12:03:46;;;;;;;5.03;1.77;;;;;;;;;;5049302;28;20206;-66
2023/05/04 12:06:15;;;;;;;1.55;1.45;;;;;;;;;;5050518;28;20210;-66
2023/05/04 12:08:43;;;;;;;1.80;1.70;;;;;;;;;;5051459;28;20327;-66
2023/05/04 12:11:15;;;;;;;2.33;1.70;;;;;;;;;;5053392;28;20234;-66
2023/05/04 12:13:44;;;;;;;1.60;1.50;;;;;;;;;;5049604;28;20263;-66
2023/05/04 12:16:15;;;;;;;1.85;1.60;;;;;;;;;;5047308;28;20206;-66
2023/05/04 12:18:44;;;;;;;1.70;1.60;;;;;;;;;;5049142;28;20261;-66
2023/05/04 12:21:12;;;;;;;3.40;1.80;;;;;;;;;;5043927;28;20198;-66
2023/05/04 12:23:45;;;;;;;2.65;1.50;;;;;;;;;;5042471;28;20208;-67
2023/05/04 12:26:17;;;;;;;1.80;1.70;;;;;;;;;;5046783;28;20286;-66
2023/05/04 12:28:46;;;;;;;2.20;1.60;;;;;;;;;;5048651;28;20203;-66
2023/05/04 12:31:15;;;;;;;1.63;1.50;;;;;;;;;;5050112;28;20208;-66
2023/05/04 12:33:43;;;;;;;1.88;1.63;;;;;;;;;;5044270;28;20200;-66
2023/05/04 12:36:14;;;;;;;5.90;1.90;;;;;;;;;;5045781;28;20211;-66
2023/05/04 12:38:44;;;;;;;1.83;1.60;;;;;;;;;;5047612;28;20299;-66
2023/05/04 12:41:12;;;;;;;1.50;1.40;;;;;;;;;;5048928;28;20203;-66
2023/05/04 12:43:41;;;;;;;2.33;1.83;;;;;;;;;;5052147;28;20204;-67
2023/05/04 12:46:10;;;;;;;1.55;1.40;;;;;;;;;;5050245;28;20206;-67
2023/05/04 12:48:40;;;;;;;2.20;1.60;;;;;;;;;;5047037;28;20261;-66
2023/05/04 12:51:07;;;;;;;1.70;1.50;;;;;;;;;;5052463;28;20227;-66
2023/05/04 12:53:36;;;;;;;2.70;1.60;;;;;;;;;;5050135;28;20210;-66
2023/05/04 12:56:06;;;;;;;2.28;1.70;;;;;;;;;;5051892;28;20215;-66
2023/05/04 12:58:35;;;;;;;2.20;1.63;;;;;;;;;;5051685;28;20199;-67
2023/05/04 13:01:05;;;;;;;1.58;1.48;;;;;;;;;;5030261;28;20319;-66
2023/05/04 13:03:34;;;;;;;1.48;1.38;;;;;;;;;;5047174;28;20203;-66
2023/05/04 13:06:04;;;;;;;1.80;1.70;;;;;;;;;;5049363;28;20203;-66
2023/05/04 13:08:35;;;;;;;1.50;1.40;;;;;;;;;;5050816;28;20235;-66
2023/05/04 13:11:08;;;;;;;2.33;1.70;;;;;;;;;;5042885;28;20231;-67
2023/05/04 13:13:36;;;;;;;2.80;1.70;;;;;;;;;;5044082;28;20210;-66
2023/05/04 13:16:05;;;;;;;1.70;1.60;;;;;;;;;;5046013;28;20226;-67
2023/05/04 13:18:36;;;;;;;2.67;1.70;;;;;;;;;;5042112;28;20218;-66
2023/05/04 13:21:07;;;;;;;1.80;1.70;;;;;;;;;;5047070;28;20290;-66
2023/05/04 13:23:37;;;;;;;1.70;1.60;;;;;;;;;;5045617;28;20249;-67
2023/05/04 13:26:06;;;;;;;2.28;1.65;;;;;;;;;;5046515;28;20294;-67
2023/05/04 13:28:37;;;;;;;2.47;1.60;;;;;;;;;;5044885;28;20226;-66
2023/05/04 13:31:07;;;;;;;4.43;1.80;;;;;;;;;;5043235;28;20227;-66
2023/05/04 13:33:37;;;;;;;1.80;1.70;;;;;;;;;;5042843;28;20210;-67
2023/05/04 13:36:05;;;;;;;3.20;1.65;;;;;;;;;;5041519;28;20216;-67
2023/05/04 13:38:33;;;;;;;1.80;1.70;;;;;;;;;;5043817;28;20218;-67
2023/05/04 13:41:02;;;;;;;2.35;1.60;;;;;;;;;;5050133;28;20215;-66
2023/05/04 13:43:30;;;;;;;1.70;1.60;;;;;;;;;;5045945;28;20203;-67
2023/05/04 13:46:04;;;;;;;2.00;1.80;;;;;;;;;;5049870;28;20211;-67
2023/05/04 13:48:32;;;;;;;1.95;1.80;;;;;;;;;;5040461;28;20195;-68
2023/05/04 13:51:00;;;;;;;1.70;1.60;;;;;;;;;;5045621;28;20211;-67
2023/05/04 13:53:28;;;;;;;1.80;1.70;;;;;;;;;;5043855;28;20195;-66
2023/05/04 13:55:57;;;;;;;1.90;1.80;;;;;;;;;;5045706;28;20210;-66
2023/05/04 13:58:25;;;;;;;1.70;1.60;;;;;;;;;;5047586;28;20203;-66
2023/05/04 14:00:56;;;;;;;1.80;1.70;;;;;;;;;;5024169;28;20242;-66
2023/05/04 14:03:26;;;;;;;1.73;1.63;;;;;;;;;;5045511;28;20203;-66
2023/05/04 14:05:58;;;;;;;2.05;1.70;;;;;;;;;;5047599;28;20308;-66
2023/05/04 14:08:32;;;;;;;1.80;1.70;;;;;;;;;;5047951;28;20239;-65
2023/05/04 14:11:01;;;;;;;1.80;1.70;;;;;;;;;;5046497;28;20215;-66
2023/05/04 14:13:28;;;;;;;1.98;1.77;;;;;;;;;;5045240;28;20207;-67
2023/05/04 14:15:57;;;;;;;2.70;1.60;;;;;;;;;;5046614;28;20618;-66
2023/05/04 14:18:31;;;;;;;2.00;1.80;;;;;;;;;;5046549;28;20199;-67
2023/05/04 14:21:03;;;;;;;1.73;1.63;;;;;;;;;;5047050;28;20218;-66
2023/05/04 14:23:30;;;;;;;1.65;1.55;;;;;;;;;;5045707;28;20200;-66
2023/05/04 14:25:58;;;;;;;1.70;1.60;;;;;;;;;;5044445;28;20218;-67
2023/05/04 14:28:25;;;;;;;1.98;1.77;;;;;;;;;;5039138;28;20207;-67
2023/05/04 14:31:07;;;;;;;1.75;1.65;;;;;;;;;;5043806;28;20227;-67
2023/05/04 14:33:36;;;;;;;2.40;1.90;;;;;;;;;;5046403;28;20211;-67
2023/05/04 14:36:03;;;;;;;1.83;1.73;;;;;;;;;;5047100;28;20235;-66
2023/05/04 14:38:34;;;;;;;1.70;1.60;;;;;;;;;;5051179;28;20211;-67
2023/05/04 14:41:02;;;;;;;3.38;1.60;;;;;;;;;;5051253;28;20191;-66
2023/05/04 14:43:30;;;;;;;1.70;1.60;;;;;;;;;;5049706;28;20210;-67
2023/05/04 14:45:57;;;;;;;1.70;1.60;;;;;;;;;;5043038;28;20207;-67
2023/05/04 14:48:25;;;;;;;1.50;1.40;;;;;;;;;;5053244;28;20203;-67
2023/05/04 14:50:53;;;;;;;2.35;1.73;;;;;;;;;;5053841;28;20224;-67
2023/05/04 14:53:21;;;;;;;1.60;1.50;;;;;;;;;;5054471;28;20208;-67
2023/05/04 14:55:49;;;;;;;2.35;1.80;;;;;;;;;;5052002;28;20219;-67
2023/05/04 14:58:16;;;;;;;2.08;1.70;;;;;;;;;;5054752;28;20196;-67